map of KSTF home
KSTF - Airport
Location
City:  Starkville, Mississippi, United States
Name:George M Bryan Airport
ICAO:KSTF
FAA LID:STF

Details
Type:Airport (Airfield)
Use:Public/Civil
Latitude:3325'59"N (33.433111)
Longitude:8850'55"W (-88.848610)
Datum:WGS 1984
Elevation:332 ft (101 m)
Variation:2.07W (WMM2015v2 magnetic declination)
-0.08 annual change
Runways:1
Longest:5550 × 150 ft (1692 × 45.5 m), paved

Time
Time Zone:UTC-6 (DST-5)
Local Time:

Weather
METAR:KSTF 041415Z AUTO 14005KT 1 1/2SM OVC003 13/12 A3002 RMK AO2 PWINO

Related Locations
Nearby:
Farthest:MQZ: 11067 mi / 17811 km
Margaret River [Margaret River Airport], WA, AU

Find:

   beyond  
but within

Other Information
Maps:
NOTAMs:
Links:
Sources:

  
  • flag of United States
  • flag of Mississippi
  

Sectional Chart

Flight Planning
at skyvector.com

Satellite Image

Google Maps Satellite view

 

Copyright © 2004-2019 Karl L. Swartz. All rights reserved.
The Great Circle Mapper name and logo are trademarks of the Great Circle Mapper.
All other trademarks mentioned herein belong to their respective owners.
Please see credits for attibutions and further copyright information.

  Follow gcmap on Facebook Follow gcmap on Twitter GCmap on LinkedIn

hCard Microformat

Geo Microformat